Denham Springs, LA

8:49 PM CDT on August 03, 2015 (GMT -0500)
Edmonds | | Change Station
CLOSE
Current Station
Personal Weather Station
Location: Denham Springs, LA
Elevation: 75 ft
Nearby Weather Stations

Elev 75 ft 30.58 °N, 90.95 °W | Updated 12 minutes ago

Clear
Clear
82.9 °F
Feels Like 91 °F
N
0.0
Wind Variable Wind from SE

Today
High -- | Low -- °F
--% Chance of Precip.
Yesterday
High -- | Low -- °F
Precip. -- in
6:22 AM 7:56 PM
Waning Gibbous, 82% visible
Pressure 29.88 in
Visibility 10.0 miles
Clouds Clear
Heat Index 91 °F
Dew Point 76 °F
Humidity 81%
Rainfall 0.00 in
Snow Depth Not available.
UV 0 out of 12
Pollen 3.30 out of 12
Air Quality Not available.
Flu Activity Not available.
METAR KBTR 040053Z COR 18008KT 10SM CLR 31/22 A2988 RMK AO2 SLP116 T03060222

More Conditions Fewer Conditions

Pressure 29.88 in
Visibility 10.0 miles
Clouds Clear
Heat Index 91 °F
Dew Point 76 °F
Humidity 81%
Rainfall 0.00 in
Snow Depth Not available.
UV 0 out of 12
Pollen 3.30 out of 12
Air Quality Not available.
Flu Activity Not available.
METAR KBTR 040053Z COR 18008KT 10SM CLR 31/22 A2988 RMK AO2 SLP116 T03060222

More Conditions Fewer Conditions

10-Day Weather Forecast

×

Almanac

Astronomy

Aug. 03, 2015 Rise Set
Actual Time
Civil Twilight
Nautical Twilight
Astronomical Twilight
Moon
Length of Visible Light
Length of Day
Tomorrow will be .
, % of the Moon is Illuminated

Today's Extremes

State Highs State Lows

Community

WunderPhotos

Upload Photos

1,843,820 photos uploaded!

WunderBlogs® & News

Nearby

Air Quality

  Air Quality AQ Index Pollutant
Not available.

Snow Depth

Station Depth Elevation

Earthquake Activity

City Distance Mag. Time & Date
Minimum magnitude displayed is 2.5.

Coastal Water Temperatures

Place Temperature

Stations

Nearby Weather Stations

Station Location Temp. Windchill Dew Point Humidity Wind Precip. Elev Updated Type